Terminal Aerodrome Forecast
Issued by NWS

Home | Current Version | Previous Version | Graphics & Text | Print | Product List | Glossary On
Versions: 1 2 3 4 5 6 7 8 9 10 11 12 13 14
000
FTUS43 KTOP 031138
TAFMHK
TAF
KMHK 031138Z 0312/0412 05005KT 4SM BR BKN005
     FM031400 04005KT 6SM BR BKN009 OVC022
     FM031700 05005KT P6SM BKN025
     FM031900 03005KT P6SM SCT050
     FM040700 04003KT P6SM SCT200=

USA.gov is the U.S. government's official web portal to all federal, state and local government web resources and services.